sensor_id;sensor_type;location;lat;lon;timestamp;P1;durP1;ratioP1;P2;durP2;ratioP2
10170;SDS011;5127;50.922;6.988;2023-03-01T00:01:40;5.87;;;5.27;;
10170;SDS011;5127;50.922;6.988;2023-03-01T00:04:07;6.67;;;5.00;;
10170;SDS011;5127;50.922;6.988;2023-03-01T00:06:34;7.03;;;5.10;;
10170;SDS011;5127;50.922;6.988;2023-03-01T00:09:04;6.70;;;5.30;;
10170;SDS011;5127;50.922;6.988;2023-03-01T00:11:32;8.13;;;5.50;;
10170;SDS011;5127;50.922;6.988;2023-03-01T00:14:00;6.63;;;5.27;;
10170;SDS011;5127;50.922;6.988;2023-03-01T00:16:30;6.73;;;5.07;;
10170;SDS011;5127;50.922;6.988;2023-03-01T00:18:59;6.67;;;5.20;;
10170;SDS011;5127;50.922;6.988;2023-03-01T00:21:27;7.70;;;5.30;;
10170;SDS011;5127;50.922;6.988;2023-03-01T00:23:55;8.03;;;5.80;;
10170;SDS011;5127;50.922;6.988;2023-03-01T00:26:24;6.30;;;5.30;;
10170;SDS011;5127;50.922;6.988;2023-03-01T00:28:52;7.13;;;5.33;;
10170;SDS011;5127;50.922;6.988;2023-03-01T00:31:22;6.80;;;5.10;;
10170;SDS011;5127;50.922;6.988;2023-03-01T00:33:52;7.57;;;5.20;;
10170;SDS011;5127;50.922;6.988;2023-03-01T00:36:23;6.17;;;5.10;;
10170;SDS011;5127;50.922;6.988;2023-03-01T00:38:51;6.53;;;5.13;;
10170;SDS011;5127;50.922;6.988;2023-03-01T00:41:19;6.83;;;5.20;;
10170;SDS011;5127;50.922;6.988;2023-03-01T00:43:49;7.73;;;5.70;;
10170;SDS011;5127;50.922;6.988;2023-03-01T00:46:17;6.93;;;5.07;;
10170;SDS011;5127;50.922;6.988;2023-03-01T00:48:46;7.60;;;5.00;;
10170;SDS011;5127;50.922;6.988;2023-03-01T00:51:15;6.83;;;5.23;;
10170;SDS011;5127;50.922;6.988;2023-03-01T00:53:44;7.07;;;5.27;;
10170;SDS011;5127;50.922;6.988;2023-03-01T00:56:13;5.47;;;4.60;;
10170;SDS011;5127;50.922;6.988;2023-03-01T00:58:41;6.00;;;5.10;;
10170;SDS011;5127;50.922;6.988;2023-03-01T01:01:10;5.67;;;4.80;;
10170;SDS011;5127;50.922;6.988;2023-03-01T01:03:44;7.07;;;4.97;;
10170;SDS011;5127;50.922;6.988;2023-03-01T01:06:15;6.37;;;4.77;;
10170;SDS011;5127;50.922;6.988;2023-03-01T01:08:44;6.10;;;4.70;;
10170;SDS011;5127;50.922;6.988;2023-03-01T01:11:11;7.70;;;4.93;;
10170;SDS011;5127;50.922;6.988;2023-03-01T01:13:39;5.87;;;5.17;;
10170;SDS011;5127;50.922;6.988;2023-03-01T01:16:07;7.77;;;4.87;;
10170;SDS011;5127;50.922;6.988;2023-03-01T01:18:36;6.07;;;4.57;;
10170;SDS011;5127;50.922;6.988;2023-03-01T01:21:04;6.43;;;4.80;;
10170;SDS011;5127;50.922;6.988;2023-03-01T01:23:32;7.40;;;5.00;;
10170;SDS011;5127;50.922;6.988;2023-03-01T01:26:03;6.23;;;5.10;;
10170;SDS011;5127;50.922;6.988;2023-03-01T01:28:31;7.43;;;5.10;;
10170;SDS011;5127;50.922;6.988;2023-03-01T01:30:58;6.30;;;4.80;;
10170;SDS011;5127;50.922;6.988;2023-03-01T01:33:27;7.60;;;4.73;;
10170;SDS011;5127;50.922;6.988;2023-03-01T01:35:55;7.20;;;5.03;;
10170;SDS011;5127;50.922;6.988;2023-03-01T01:38:22;7.17;;;4.73;;
10170;SDS011;5127;50.922;6.988;2023-03-01T01:40:50;7.50;;;5.00;;
10170;SDS011;5127;50.922;6.988;2023-03-01T01:43:19;5.40;;;4.60;;
10170;SDS011;5127;50.922;6.988;2023-03-01T01:45:48;7.03;;;4.90;;
10170;SDS011;5127;50.922;6.988;2023-03-01T01:48:16;6.00;;;4.60;;
10170;SDS011;5127;50.922;6.988;2023-03-01T01:50:50;7.80;;;4.97;;
10170;SDS011;5127;50.922;6.988;2023-03-01T01:53:23;8.27;;;5.47;;
10170;SDS011;5127;50.922;6.988;2023-03-01T01:55:53;8.37;;;5.03;;
10170;SDS011;5127;50.922;6.988;2023-03-01T01:58:25;6.37;;;5.20;;
10170;SDS011;5127;50.922;6.988;2023-03-01T02:00:54;6.97;;;5.03;;
10170;SDS011;5127;50.922;6.988;2023-03-01T02:03:23;8.50;;;5.50;;
10170;SDS011;5127;50.922;6.988;2023-03-01T02:05:57;6.23;;;5.10;;
10170;SDS011;5127;50.922;6.988;2023-03-01T02:08:30;6.07;;;5.20;;
10170;SDS011;5127;50.922;6.988;2023-03-01T02:11:01;6.33;;;5.20;;
10170;SDS011;5127;50.922;6.988;2023-03-01T02:13:30;5.63;;;5.00;;
10170;SDS011;5127;50.922;6.988;2023-03-01T02:15:57;5.47;;;4.60;;
10170;SDS011;5127;50.922;6.988;2023-03-01T02:18:26;5.07;;;4.53;;
10170;SDS011;5127;50.922;6.988;2023-03-01T02:21:02;6.23;;;5.00;;
10170;SDS011;5127;50.922;6.988;2023-03-01T02:23:35;5.53;;;4.60;;
10170;SDS011;5127;50.922;6.988;2023-03-01T02:26:04;6.50;;;4.83;;
10170;SDS011;5127;50.922;6.988;2023-03-01T02:28:38;8.07;;;5.40;;
10170;SDS011;5127;50.922;6.988;2023-03-01T02:31:07;6.50;;;4.93;;
10170;SDS011;5127;50.922;6.988;2023-03-01T02:33:56;6.87;;;5.20;;
10170;SDS011;5127;50.922;6.988;2023-03-01T02:36:25;6.13;;;5.00;;
10170;SDS011;5127;50.922;6.988;2023-03-01T02:38:56;5.87;;;4.97;;
10170;SDS011;5127;50.922;6.988;2023-03-01T02:41:26;6.77;;;5.13;;
10170;SDS011;5127;50.922;6.988;2023-03-01T02:43:59;5.13;;;4.50;;
10170;SDS011;5127;50.922;6.988;2023-03-01T02:46:26;7.13;;;5.20;;
10170;SDS011;5127;50.922;6.988;2023-03-01T02:48:54;7.63;;;5.03;;
10170;SDS011;5127;50.922;6.988;2023-03-01T02:51:30;5.70;;;5.10;;
10170;SDS011;5127;50.922;6.988;2023-03-01T02:54:11;7.10;;;5.33;;
10170;SDS011;5127;50.922;6.988;2023-03-01T02:56:44;6.17;;;5.10;;
10170;SDS011;5127;50.922;6.988;2023-03-01T02:59:16;7.20;;;4.87;;
10170;SDS011;5127;50.922;6.988;2023-03-01T03:01:47;7.27;;;5.23;;
10170;SDS011;5127;50.922;6.988;2023-03-01T03:04:15;7.50;;;5.50;;
10170;SDS011;5127;50.922;6.988;2023-03-01T03:06:48;6.07;;;5.07;;
10170;SDS011;5127;50.922;6.988;2023-03-01T03:09:17;9.27;;;5.47;;
10170;SDS011;5127;50.922;6.988;2023-03-01T03:11:45;6.77;;;5.33;;
10170;SDS011;5127;50.922;6.988;2023-03-01T03:14:14;7.50;;;5.13;;
10170;SDS011;5127;50.922;6.988;2023-03-01T03:16:46;6.50;;;5.30;;
10170;SDS011;5127;50.922;6.988;2023-03-01T03:19:15;6.47;;;5.20;;
10170;SDS011;5127;50.922;6.988;2023-03-01T03:21:42;7.37;;;5.33;;
10170;SDS011;5127;50.922;6.988;2023-03-01T03:24:10;6.77;;;5.60;;
10170;SDS011;5127;50.922;6.988;2023-03-01T03:26:37;9.17;;;5.80;;
10170;SDS011;5127;50.922;6.988;2023-03-01T03:29:04;8.30;;;5.40;;
10170;SDS011;5127;50.922;6.988;2023-03-01T03:31:33;6.13;;;5.30;;
10170;SDS011;5127;50.922;6.988;2023-03-01T03:34:00;7.03;;;5.20;;
10170;SDS011;5127;50.922;6.988;2023-03-01T03:36:27;8.47;;;6.40;;
10170;SDS011;5127;50.922;6.988;2023-03-01T03:38:55;6.47;;;5.40;;
10170;SDS011;5127;50.922;6.988;2023-03-01T03:41:22;7.10;;;5.27;;
10170;SDS011;5127;50.922;6.988;2023-03-01T03:43:49;9.33;;;5.77;;
10170;SDS011;5127;50.922;6.988;2023-03-01T03:46:16;7.27;;;5.73;;
10170;SDS011;5127;50.922;6.988;2023-03-01T03:48:45;6.47;;;5.50;;
10170;SDS011;5127;50.922;6.988;2023-03-01T03:51:13;6.80;;;5.67;;
10170;SDS011;5127;50.922;6.988;2023-03-01T03:53:42;8.93;;;5.60;;
10170;SDS011;5127;50.922;6.988;2023-03-01T03:56:10;6.30;;;5.70;;
10170;SDS011;5127;50.922;6.988;2023-03-01T03:58:38;7.23;;;5.70;;
10170;SDS011;5127;50.922;6.988;2023-03-01T04:01:05;7.67;;;5.37;;
10170;SDS011;5127;50.922;6.988;2023-03-01T04:03:33;7.77;;;5.93;;
10170;SDS011;5127;50.922;6.988;2023-03-01T04:06:03;9.10;;;6.00;;
10170;SDS011;5127;50.922;6.988;2023-03-01T04:08:31;6.27;;;5.17;;
10170;SDS011;5127;50.922;6.988;2023-03-01T04:10:59;7.93;;;5.73;;
10170;SDS011;5127;50.922;6.988;2023-03-01T04:13:50;9.17;;;6.00;;
10170;SDS011;5127;50.922;6.988;2023-03-01T04:16:18;8.07;;;5.77;;
10170;SDS011;5127;50.922;6.988;2023-03-01T04:18:47;7.13;;;5.47;;
10170;SDS011;5127;50.922;6.988;2023-03-01T04:21:15;7.57;;;5.43;;
10170;SDS011;5127;50.922;6.988;2023-03-01T04:23:43;8.33;;;6.10;;
10170;SDS011;5127;50.922;6.988;2023-03-01T04:26:10;8.90;;;6.17;;
10170;SDS011;5127;50.922;6.988;2023-03-01T04:28:38;7.90;;;6.03;;
10170;SDS011;5127;50.922;6.988;2023-03-01T04:31:09;7.37;;;6.00;;
10170;SDS011;5127;50.922;6.988;2023-03-01T04:33:42;7.03;;;5.30;;
10170;SDS011;5127;50.922;6.988;2023-03-01T04:36:11;7.90;;;6.40;;
10170;SDS011;5127;50.922;6.988;2023-03-01T04:38:41;8.30;;;6.20;;
10170;SDS011;5127;50.922;6.988;2023-03-01T04:41:13;7.97;;;6.17;;
10170;SDS011;5127;50.922;6.988;2023-03-01T04:43:41;8.13;;;6.10;;
10170;SDS011;5127;50.922;6.988;2023-03-01T04:46:09;7.03;;;6.20;;
10170;SDS011;5127;50.922;6.988;2023-03-01T04:48:40;7.20;;;6.10;;
10170;SDS011;5127;50.922;6.988;2023-03-01T04:51:08;8.23;;;6.20;;
10170;SDS011;5127;50.922;6.988;2023-03-01T04:53:39;7.20;;;5.90;;
10170;SDS011;5127;50.922;6.988;2023-03-01T04:56:08;8.87;;;6.53;;
10170;SDS011;5127;50.922;6.988;2023-03-01T04:58:36;8.57;;;6.33;;
10170;SDS011;5127;50.922;6.988;2023-03-01T05:01:07;6.83;;;5.63;;
10170;SDS011;5127;50.922;6.988;2023-03-01T05:03:41;8.47;;;6.53;;
10170;SDS011;5127;50.922;6.988;2023-03-01T05:06:09;8.70;;;6.10;;
10170;SDS011;5127;50.922;6.988;2023-03-01T05:08:37;7.70;;;6.50;;
10170;SDS011;5127;50.922;6.988;2023-03-01T05:11:06;10.83;;;6.00;;
10170;SDS011;5127;50.922;6.988;2023-03-01T05:13:34;8.70;;;6.43;;
10170;SDS011;5127;50.922;6.988;2023-03-01T05:16:02;7.97;;;6.33;;
10170;SDS011;5127;50.922;6.988;2023-03-01T05:18:31;8.40;;;6.00;;
10170;SDS011;5127;50.922;6.988;2023-03-01T05:21:02;8.27;;;6.03;;
10170;SDS011;5127;50.922;6.988;2023-03-01T05:23:31;8.43;;;6.40;;
10170;SDS011;5127;50.922;6.988;2023-03-01T05:25:59;8.73;;;6.73;;
10170;SDS011;5127;50.922;6.988;2023-03-01T05:28:29;8.53;;;6.60;;
10170;SDS011;5127;50.922;6.988;2023-03-01T05:30:57;10.73;;;6.93;;
10170;SDS011;5127;50.922;6.988;2023-03-01T05:33:25;11.33;;;7.37;;
10170;SDS011;5127;50.922;6.988;2023-03-01T05:35:53;10.13;;;6.60;;
10170;SDS011;5127;50.922;6.988;2023-03-01T05:38:20;9.37;;;7.07;;
10170;SDS011;5127;50.922;6.988;2023-03-01T05:40:48;10.97;;;7.10;;
10170;SDS011;5127;50.922;6.988;2023-03-01T05:43:16;8.57;;;6.80;;
10170;SDS011;5127;50.922;6.988;2023-03-01T05:45:45;9.50;;;7.30;;
10170;SDS011;5127;50.922;6.988;2023-03-01T05:48:13;10.63;;;7.00;;
10170;SDS011;5127;50.922;6.988;2023-03-01T05:50:41;9.50;;;7.17;;
10170;SDS011;5127;50.922;6.988;2023-03-01T05:53:10;9.70;;;6.93;;
10170;SDS011;5127;50.922;6.988;2023-03-01T05:55:39;10.27;;;7.23;;
10170;SDS011;5127;50.922;6.988;2023-03-01T05:58:07;8.30;;;6.50;;
10170;SDS011;5127;50.922;6.988;2023-03-01T06:00:37;10.67;;;7.87;;
10170;SDS011;5127;50.922;6.988;2023-03-01T06:03:06;12.67;;;7.17;;
10170;SDS011;5127;50.922;6.988;2023-03-01T06:05:33;12.83;;;7.50;;
10170;SDS011;5127;50.922;6.988;2023-03-01T06:08:01;12.90;;;7.87;;
10170;SDS011;5127;50.922;6.988;2023-03-01T06:10:28;12.73;;;7.17;;
10170;SDS011;5127;50.922;6.988;2023-03-01T06:12:56;10.20;;;7.63;;
10170;SDS011;5127;50.922;6.988;2023-03-01T06:15:24;10.00;;;6.97;;
10170;SDS011;5127;50.922;6.988;2023-03-01T06:17:53;9.97;;;7.17;;
10170;SDS011;5127;50.922;6.988;2023-03-01T06:20:24;9.07;;;8.00;;
10170;SDS011;5127;50.922;6.988;2023-03-01T06:22:53;9.40;;;7.40;;
10170;SDS011;5127;50.922;6.988;2023-03-01T06:25:21;13.10;;;8.37;;
10170;SDS011;5127;50.922;6.988;2023-03-01T06:27:49;10.30;;;7.40;;
10170;SDS011;5127;50.922;6.988;2023-03-01T06:30:18;10.03;;;7.83;;
10170;SDS011;5127;50.922;6.988;2023-03-01T06:32:46;12.23;;;7.93;;
10170;SDS011;5127;50.922;6.988;2023-03-01T06:35:15;11.57;;;7.70;;
10170;SDS011;5127;50.922;6.988;2023-03-01T06:37:45;11.80;;;7.90;;
10170;SDS011;5127;50.922;6.988;2023-03-01T06:40:14;11.43;;;8.37;;
10170;SDS011;5127;50.922;6.988;2023-03-01T06:42:43;15.83;;;8.80;;
10170;SDS011;5127;50.922;6.988;2023-03-01T06:45:14;13.67;;;8.50;;
10170;SDS011;5127;50.922;6.988;2023-03-01T06:47:42;10.90;;;8.47;;
10170;SDS011;5127;50.922;6.988;2023-03-01T06:50:09;12.43;;;8.93;;
10170;SDS011;5127;50.922;6.988;2023-03-01T06:52:37;16.87;;;9.33;;
10170;SDS011;5127;50.922;6.988;2023-03-01T06:55:06;15.37;;;8.93;;
10170;SDS011;5127;50.922;6.988;2023-03-01T06:57:34;14.23;;;8.57;;
10170;SDS011;5127;50.922;6.988;2023-03-01T07:00:01;10.33;;;8.17;;
10170;SDS011;5127;50.922;6.988;2023-03-01T07:02:29;9.63;;;7.23;;
10170;SDS011;5127;50.922;6.988;2023-03-01T07:04:56;13.77;;;8.73;;
10170;SDS011;5127;50.922;6.988;2023-03-01T07:07:24;12.70;;;8.07;;
10170;SDS011;5127;50.922;6.988;2023-03-01T07:09:51;10.07;;;7.30;;
10170;SDS011;5127;50.922;6.988;2023-03-01T07:12:20;10.03;;;8.20;;
10170;SDS011;5127;50.922;6.988;2023-03-01T07:14:47;11.30;;;8.37;;
10170;SDS011;5127;50.922;6.988;2023-03-01T07:17:14;13.63;;;8.57;;
10170;SDS011;5127;50.922;6.988;2023-03-01T07:19:41;11.77;;;7.73;;
10170;SDS011;5127;50.922;6.988;2023-03-01T07:22:10;15.87;;;9.67;;
10170;SDS011;5127;50.922;6.988;2023-03-01T07:24:37;13.60;;;9.87;;
10170;SDS011;5127;50.922;6.988;2023-03-01T07:27:04;15.70;;;10.10;;
10170;SDS011;5127;50.922;6.988;2023-03-01T07:29:33;15.00;;;9.60;;
10170;SDS011;5127;50.922;6.988;2023-03-01T07:32:01;12.40;;;9.70;;
10170;SDS011;5127;50.922;6.988;2023-03-01T07:34:29;13.67;;;9.40;;
10170;SDS011;5127;50.922;6.988;2023-03-01T07:36:56;11.77;;;9.20;;
10170;SDS011;5127;50.922;6.988;2023-03-01T07:39:23;11.90;;;9.53;;
10170;SDS011;5127;50.922;6.988;2023-03-01T07:41:51;12.30;;;8.30;;
10170;SDS011;5127;50.922;6.988;2023-03-01T07:44:21;12.20;;;9.33;;
10170;SDS011;5127;50.922;6.988;2023-03-01T07:46:49;12.67;;;9.27;;
10170;SDS011;5127;50.922;6.988;2023-03-01T07:49:21;11.80;;;9.37;;
10170;SDS011;5127;50.922;6.988;2023-03-01T07:51:49;9.50;;;8.00;;
10170;SDS011;5127;50.922;6.988;2023-03-01T07:54:16;10.83;;;9.20;;
10170;SDS011;5127;50.922;6.988;2023-03-01T07:56:43;13.00;;;9.53;;
10170;SDS011;5127;50.922;6.988;2023-03-01T07:59:10;12.90;;;9.10;;
10170;SDS011;5127;50.922;6.988;2023-03-01T08:01:38;13.07;;;10.27;;
10170;SDS011;5127;50.922;6.988;2023-03-01T08:04:06;14.40;;;10.37;;
10170;SDS011;5127;50.922;6.988;2023-03-01T08:06:34;12.10;;;9.23;;
10170;SDS011;5127;50.922;6.988;2023-03-01T08:09:02;13.03;;;10.03;;
10170;SDS011;5127;50.922;6.988;2023-03-01T08:11:29;12.17;;;9.47;;
10170;SDS011;5127;50.922;6.988;2023-03-01T08:13:57;10.43;;;9.30;;
10170;SDS011;5127;50.922;6.988;2023-03-01T08:16:24;9.53;;;8.50;;
10170;SDS011;5127;50.922;6.988;2023-03-01T08:18:51;11.50;;;9.00;;
10170;SDS011;5127;50.922;6.988;2023-03-01T08:21:23;14.17;;;9.90;;
10170;SDS011;5127;50.922;6.988;2023-03-01T08:23:50;9.30;;;8.47;;
10170;SDS011;5127;50.922;6.988;2023-03-01T08:26:18;11.20;;;9.60;;
10170;SDS011;5127;50.922;6.988;2023-03-01T08:28:47;12.17;;;9.47;;
10170;SDS011;5127;50.922;6.988;2023-03-01T08:31:16;11.23;;;9.17;;
10170;SDS011;5127;50.922;6.988;2023-03-01T08:33:45;12.23;;;9.43;;
10170;SDS011;5127;50.922;6.988;2023-03-01T08:36:16;10.50;;;9.40;;
10170;SDS011;5127;50.922;6.988;2023-03-01T08:38:44;9.70;;;8.70;;
10170;SDS011;5127;50.922;6.988;2023-03-01T08:41:12;11.87;;;9.77;;
10170;SDS011;5127;50.922;6.988;2023-03-01T08:43:39;10.00;;;9.00;;
10170;SDS011;5127;50.922;6.988;2023-03-01T08:46:07;10.10;;;8.23;;
10170;SDS011;5127;50.922;6.988;2023-03-01T08:48:34;9.50;;;8.50;;
10170;SDS011;5127;50.922;6.988;2023-03-01T08:51:08;9.87;;;8.63;;
10170;SDS011;5127;50.922;6.988;2023-03-01T08:53:36;11.17;;;9.23;;
10170;SDS011;5127;50.922;6.988;2023-03-01T08:56:04;9.53;;;8.30;;
10170;SDS011;5127;50.922;6.988;2023-03-01T08:58:32;9.37;;;8.07;;
10170;SDS011;5127;50.922;6.988;2023-03-01T09:00:59;10.30;;;8.83;;
10170;SDS011;5127;50.922;6.988;2023-03-01T09:03:27;9.93;;;8.77;;
10170;SDS011;5127;50.922;6.988;2023-03-01T09:05:59;9.13;;;8.17;;
10170;SDS011;5127;50.922;6.988;2023-03-01T09:08:27;8.83;;;7.53;;
10170;SDS011;5127;50.922;6.988;2023-03-01T09:14:05;8.97;;;7.93;;
10170;SDS011;5127;50.922;6.988;2023-03-01T09:16:33;8.97;;;7.70;;
10170;SDS011;5127;50.922;6.988;2023-03-01T09:19:01;8.77;;;7.27;;
10170;SDS011;5127;50.922;6.988;2023-03-01T09:21:29;8.70;;;7.07;;
10170;SDS011;5127;50.922;6.988;2023-03-01T09:23:56;8.20;;;6.90;;
10170;SDS011;5127;50.922;6.988;2023-03-01T09:26:24;9.33;;;7.60;;
10170;SDS011;5127;50.922;6.988;2023-03-01T09:28:52;8.90;;;7.53;;
10170;SDS011;5127;50.922;6.988;2023-03-01T09:31:22;7.87;;;7.07;;
10170;SDS011;5127;50.922;6.988;2023-03-01T09:33:51;9.97;;;7.57;;
10170;SDS011;5127;50.922;6.988;2023-03-01T09:36:19;8.60;;;7.00;;
10170;SDS011;5127;50.922;6.988;2023-03-01T09:38:48;9.90;;;7.57;;
10170;SDS011;5127;50.922;6.988;2023-03-01T09:41:29;8.93;;;7.60;;
10170;SDS011;5127;50.922;6.988;2023-03-01T09:44:05;8.87;;;7.57;;
10170;SDS011;5127;50.922;6.988;2023-03-01T09:46:42;10.23;;;7.40;;
10170;SDS011;5127;50.922;6.988;2023-03-01T09:49:12;9.73;;;7.37;;
10170;SDS011;5127;50.922;6.988;2023-03-01T09:51:43;9.90;;;7.80;;
10170;SDS011;5127;50.922;6.988;2023-03-01T09:54:20;10.83;;;7.83;;
10170;SDS011;5127;50.922;6.988;2023-03-01T09:56:51;10.73;;;7.67;;
10170;SDS011;5127;50.922;6.988;2023-03-01T09:59:26;10.57;;;7.77;;
10170;SDS011;5127;50.922;6.988;2023-03-01T10:02:02;8.97;;;7.60;;
10170;SDS011;5127;50.922;6.988;2023-03-01T10:04:40;8.80;;;7.30;;
10170;SDS011;5127;50.922;6.988;2023-03-01T10:07:22;9.83;;;8.13;;
10170;SDS011;5127;50.922;6.988;2023-03-01T10:09:57;12.23;;;7.93;;
10170;SDS011;5127;50.922;6.988;2023-03-01T10:12:27;10.33;;;7.80;;
10170;SDS011;5127;50.922;6.988;2023-03-01T10:15:02;8.57;;;7.37;;
10170;SDS011;5127;50.922;6.988;2023-03-01T10:17:37;11.00;;;7.83;;
10170;SDS011;5127;50.922;6.988;2023-03-01T10:20:17;10.53;;;8.23;;
10170;SDS011;5127;50.922;6.988;2023-03-01T10:22:46;10.70;;;8.20;;
10170;SDS011;5127;50.922;6.988;2023-03-01T10:25:17;10.43;;;7.03;;
10170;SDS011;5127;50.922;6.988;2023-03-01T10:27:54;10.17;;;7.77;;
10170;SDS011;5127;50.922;6.988;2023-03-01T10:30:29;8.53;;;7.30;;
10170;SDS011;5127;50.922;6.988;2023-03-01T10:33:05;10.83;;;7.70;;
10170;SDS011;5127;50.922;6.988;2023-03-01T10:35:41;9.10;;;7.60;;
10170;SDS011;5127;50.922;6.988;2023-03-01T10:38:09;11.10;;;8.20;;
10170;SDS011;5127;50.922;6.988;2023-03-01T10:40:49;9.27;;;7.90;;
10170;SDS011;5127;50.922;6.988;2023-03-01T10:43:18;9.83;;;8.20;;
10170;SDS011;5127;50.922;6.988;2023-03-01T10:45:45;8.80;;;7.33;;
10170;SDS011;5127;50.922;6.988;2023-03-01T10:48:15;11.03;;;7.47;;
10170;SDS011;5127;50.922;6.988;2023-03-01T10:50:45;11.30;;;7.70;;
10170;SDS011;5127;50.922;6.988;2023-03-01T10:53:19;9.50;;;7.53;;
10170;SDS011;5127;50.922;6.988;2023-03-01T10:56:04;8.90;;;7.80;;
10170;SDS011;5127;50.922;6.988;2023-03-01T10:58:34;10.73;;;7.70;;
10170;SDS011;5127;50.922;6.988;2023-03-01T11:01:03;8.80;;;7.30;;
10170;SDS011;5127;50.922;6.988;2023-03-01T11:03:33;8.57;;;6.70;;
10170;SDS011;5127;50.922;6.988;2023-03-01T11:06:04;9.93;;;7.13;;
10170;SDS011;5127;50.922;6.988;2023-03-01T11:11:21;9.80;;;7.70;;
10170;SDS011;5127;50.922;6.988;2023-03-01T11:14:07;9.87;;;7.30;;
10170;SDS011;5127;50.922;6.988;2023-03-01T11:16:42;10.67;;;7.53;;
10170;SDS011;5127;50.922;6.988;2023-03-01T11:19:16;12.70;;;6.77;;
10170;SDS011;5127;50.922;6.988;2023-03-01T11:21:49;10.50;;;6.80;;
10170;SDS011;5127;50.922;6.988;2023-03-01T11:24:23;10.00;;;7.23;;
10170;SDS011;5127;50.922;6.988;2023-03-01T11:26:54;7.73;;;6.53;;
10170;SDS011;5127;50.922;6.988;2023-03-01T11:29:26;10.60;;;7.47;;
10170;SDS011;5127;50.922;6.988;2023-03-01T11:31:57;9.97;;;7.37;;
10170;SDS011;5127;50.922;6.988;2023-03-01T11:34:34;8.73;;;7.00;;
10170;SDS011;5127;50.922;6.988;2023-03-01T11:37:13;9.43;;;7.57;;
10170;SDS011;5127;50.922;6.988;2023-03-01T11:39:51;9.67;;;7.37;;
10170;SDS011;5127;50.922;6.988;2023-03-01T11:42:25;9.67;;;7.70;;
10170;SDS011;5127;50.922;6.988;2023-03-01T11:45:03;7.60;;;6.80;;
10170;SDS011;5127;50.922;6.988;2023-03-01T11:47:46;9.17;;;7.60;;
10170;SDS011;5127;50.922;6.988;2023-03-01T11:50:37;10.00;;;7.47;;
10170;SDS011;5127;50.922;6.988;2023-03-01T11:53:13;9.80;;;7.80;;
10170;SDS011;5127;50.922;6.988;2023-03-01T11:55:58;8.90;;;7.47;;
10170;SDS011;5127;50.922;6.988;2023-03-01T11:58:39;8.53;;;7.10;;
10170;SDS011;5127;50.922;6.988;2023-03-01T12:01:21;8.17;;;7.03;;
10170;SDS011;5127;50.922;6.988;2023-03-01T12:07:14;9.27;;;7.20;;
10170;SDS011;5127;50.922;6.988;2023-03-01T12:09:49;10.23;;;7.77;;
10170;SDS011;5127;50.922;6.988;2023-03-01T12:12:26;8.33;;;6.77;;
10170;SDS011;5127;50.922;6.988;2023-03-01T12:15:07;11.00;;;7.00;;
10170;SDS011;5127;50.922;6.988;2023-03-01T12:18:03;8.47;;;6.90;;
10170;SDS011;5127;50.922;6.988;2023-03-01T12:20:46;8.70;;;7.20;;
10170;SDS011;5127;50.922;6.988;2023-03-01T12:23:30;7.93;;;7.13;;
10170;SDS011;5127;50.922;6.988;2023-03-01T12:26:12;8.30;;;7.13;;
10170;SDS011;5127;50.922;6.988;2023-03-01T12:28:55;8.13;;;6.93;;
10170;SDS011;5127;50.922;6.988;2023-03-01T12:31:38;9.43;;;6.97;;
10170;SDS011;5127;50.922;6.988;2023-03-01T12:34:38;8.97;;;7.00;;
10170;SDS011;5127;50.922;6.988;2023-03-01T12:37:30;7.77;;;6.70;;
10170;SDS011;5127;50.922;6.988;2023-03-01T12:40:21;8.90;;;7.10;;
10170;SDS011;5127;50.922;6.988;2023-03-01T12:43:03;9.63;;;6.87;;
10170;SDS011;5127;50.922;6.988;2023-03-01T12:45:44;8.07;;;6.70;;
10170;SDS011;5127;50.922;6.988;2023-03-01T12:48:30;7.90;;;6.53;;
10170;SDS011;5127;50.922;6.988;2023-03-01T12:51:07;8.10;;;6.17;;
10170;SDS011;5127;50.922;6.988;2023-03-01T12:53:40;6.80;;;6.07;;
10170;SDS011;5127;50.922;6.988;2023-03-01T12:56:12;7.77;;;6.60;;
10170;SDS011;5127;50.922;6.988;2023-03-01T12:58:45;8.97;;;6.60;;
10170;SDS011;5127;50.922;6.988;2023-03-01T13:01:23;8.17;;;6.73;;
10170;SDS011;5127;50.922;6.988;2023-03-01T13:04:08;7.97;;;5.90;;
10170;SDS011;5127;50.922;6.988;2023-03-01T13:06:44;7.53;;;5.90;;
10170;SDS011;5127;50.922;6.988;2023-03-01T13:09:22;7.33;;;5.83;;
10170;SDS011;5127;50.922;6.988;2023-03-01T13:11:55;7.50;;;6.47;;
10170;SDS011;5127;50.922;6.988;2023-03-01T13:14:35;8.33;;;5.80;;
10170;SDS011;5127;50.922;6.988;2023-03-01T13:17:04;7.10;;;6.37;;
10170;SDS011;5127;50.922;6.988;2023-03-01T13:19:57;7.87;;;5.83;;
10170;SDS011;5127;50.922;6.988;2023-03-01T13:22:26;8.40;;;5.73;;
10170;SDS011;5127;50.922;6.988;2023-03-01T13:25:11;7.47;;;5.60;;
10170;SDS011;5127;50.922;6.988;2023-03-01T13:27:43;5.53;;;4.93;;
10170;SDS011;5127;50.922;6.988;2023-03-01T13:33:33;8.03;;;5.97;;
10170;SDS011;5127;50.922;6.988;2023-03-01T13:36:07;8.63;;;5.87;;
10170;SDS011;5127;50.922;6.988;2023-03-01T13:38:48;7.37;;;6.10;;
10170;SDS011;5127;50.922;6.988;2023-03-01T13:44:20;7.40;;;6.17;;
10170;SDS011;5127;50.922;6.988;2023-03-01T13:46:51;8.57;;;6.67;;
10170;SDS011;5127;50.922;6.988;2023-03-01T13:49:22;7.20;;;6.50;;
10170;SDS011;5127;50.922;6.988;2023-03-01T13:51:53;7.53;;;6.20;;
10170;SDS011;5127;50.922;6.988;2023-03-01T13:54:22;8.00;;;6.60;;
10170;SDS011;5127;50.922;6.988;2023-03-01T13:56:55;8.23;;;6.27;;
10170;SDS011;5127;50.922;6.988;2023-03-01T13:59:25;6.63;;;5.77;;
10170;SDS011;5127;50.922;6.988;2023-03-01T14:01:55;7.27;;;6.40;;
10170;SDS011;5127;50.922;6.988;2023-03-01T14:04:24;6.97;;;6.27;;
10170;SDS011;5127;50.922;6.988;2023-03-01T14:06:53;7.33;;;6.43;;
10170;SDS011;5127;50.922;6.988;2023-03-01T14:09:37;7.03;;;6.33;;
10170;SDS011;5127;50.922;6.988;2023-03-01T14:12:19;8.37;;;5.97;;
10170;SDS011;5127;50.922;6.988;2023-03-01T14:14:56;7.20;;;5.73;;
10170;SDS011;5127;50.922;6.988;2023-03-01T14:17:37;7.63;;;5.93;;
10170;SDS011;5127;50.922;6.988;2023-03-01T14:20:24;6.87;;;5.87;;
10170;SDS011;5127;50.922;6.988;2023-03-01T14:22:54;6.97;;;5.40;;
10170;SDS011;5127;50.922;6.988;2023-03-01T14:25:24;6.33;;;5.43;;
10170;SDS011;5127;50.922;6.988;2023-03-01T14:27:58;6.80;;;5.47;;
10170;SDS011;5127;50.922;6.988;2023-03-01T14:30:31;6.80;;;5.20;;
10170;SDS011;5127;50.922;6.988;2023-03-01T14:33:01;5.77;;;5.17;;
10170;SDS011;5127;50.922;6.988;2023-03-01T14:35:32;5.53;;;4.93;;
10170;SDS011;5127;50.922;6.988;2023-03-01T14:38:01;6.23;;;5.40;;
10170;SDS011;5127;50.922;6.988;2023-03-01T14:40:30;6.27;;;5.20;;
10170;SDS011;5127;50.922;6.988;2023-03-01T14:43:00;5.70;;;4.83;;
10170;SDS011;5127;50.922;6.988;2023-03-01T14:45:36;7.90;;;5.30;;
10170;SDS011;5127;50.922;6.988;2023-03-01T14:48:18;6.47;;;4.93;;
10170;SDS011;5127;50.922;6.988;2023-03-01T14:50:46;9.37;;;5.80;;
10170;SDS011;5127;50.922;6.988;2023-03-01T14:53:15;9.57;;;6.13;;
10170;SDS011;5127;50.922;6.988;2023-03-01T14:55:46;8.97;;;5.60;;
10170;SDS011;5127;50.922;6.988;2023-03-01T14:58:18;7.67;;;6.00;;
10170;SDS011;5127;50.922;6.988;2023-03-01T15:00:49;7.50;;;6.20;;
10170;SDS011;5127;50.922;6.988;2023-03-01T15:03:26;7.70;;;6.13;;
10170;SDS011;5127;50.922;6.988;2023-03-01T15:05:57;10.60;;;5.93;;
10170;SDS011;5127;50.922;6.988;2023-03-01T15:08:27;7.20;;;6.07;;
10170;SDS011;5127;50.922;6.988;2023-03-01T15:11:00;8.83;;;6.00;;
10170;SDS011;5127;50.922;6.988;2023-03-01T15:13:30;8.17;;;6.60;;
10170;SDS011;5127;50.922;6.988;2023-03-01T15:16:04;6.53;;;5.80;;
10170;SDS011;5127;50.922;6.988;2023-03-01T15:18:34;10.27;;;6.70;;
10170;SDS011;5127;50.922;6.988;2023-03-01T15:21:06;8.00;;;5.47;;
10170;SDS011;5127;50.922;6.988;2023-03-01T15:23:36;6.60;;;5.50;;
10170;SDS011;5127;50.922;6.988;2023-03-01T15:26:06;8.23;;;6.00;;
10170;SDS011;5127;50.922;6.988;2023-03-01T15:28:49;8.67;;;5.77;;
10170;SDS011;5127;50.922;6.988;2023-03-01T15:31:19;7.23;;;5.70;;
10170;SDS011;5127;50.922;6.988;2023-03-01T15:33:49;7.73;;;6.10;;
10170;SDS011;5127;50.922;6.988;2023-03-01T15:36:31;7.77;;;5.47;;
10170;SDS011;5127;50.922;6.988;2023-03-01T15:39:03;10.27;;;5.73;;